Time;durP1;ratioP1;P1;durP2;ratioP2;P2;SDS_P1;SDS_P2;PMS_P1;PMS_P2;Temp;Humidity;BMP_temperature;BMP_pressure;BME280_temperature;BME280_humidity;BME280_pressure;Samples;Min_cycle;Max_cycle;Signal;HPM_P1;HPM_P2
2021/10/21 00:01:16;;;;;;;2.75;1.75;;;12.40;90.80;;;;;;5088283;28;20229;-91
2021/10/21 00:03:44;;;;;;;2.10;1.90;;;12.40;90.30;;;;;;5081594;28;20624;-90
2021/10/21 00:06:11;;;;;;;2.20;2.00;;;12.50;90.20;;;;;;5070182;28;20236;-89
2021/10/21 00:08:38;;;;;;;2.85;1.95;;;12.50;90.00;;;;;;5082320;28;20236;-90
2021/10/21 00:11:35;;;;;;;3.33;1.80;;;12.50;90.00;;;;;;5093052;28;20650;-90
2021/10/21 00:14:41;;;;;;;3.45;1.98;;;12.50;90.20;;;;;;5681359;22;20233;-89
2021/10/21 00:17:08;;;;;;;2.45;1.75;;;12.50;90.10;;;;;;5072628;28;20222;-89
2021/10/21 00:19:49;;;;;;;2.13;1.90;;;12.50;90.20;;;;;;5072578;28;20202;-89
2021/10/21 00:22:54;;;;;;;3.88;2.00;;;12.50;90.30;;;;;;5071588;28;20677;-89
2021/10/21 00:25:21;;;;;;;2.00;1.80;;;12.50;88.50;;;;;;5072657;28;20229;-89
2021/10/21 00:27:48;;;;;;;3.50;2.30;;;12.60;87.10;;;;;;5072991;28;20256;-89
2021/10/21 00:33:43;;;;;;;3.47;2.00;;;12.80;84.20;;;;;;5074963;28;20181;-89
2021/10/21 00:36:12;;;;;;;2.28;2.08;;;12.90;82.10;;;;;;5073525;28;20208;-90
2021/10/21 00:38:49;;;;;;;4.22;2.13;;;13.00;81.20;;;;;;5074220;28;20221;-91
2021/10/21 00:41:17;;;;;;;2.53;2.30;;;13.10;80.20;;;;;;5073870;28;20552;-90
2021/10/21 00:43:44;;;;;;;2.28;2.08;;;13.20;78.80;;;;;;5094257;28;20193;-90
2021/10/21 00:46:13;;;;;;;2.50;2.30;;;13.30;78.30;;;;;;5072519;28;20244;-89
2021/10/21 00:48:40;;;;;;;2.30;2.08;;;13.30;78.10;;;;;;5057787;28;20217;-89
2021/10/21 00:51:14;;;;;;;2.40;2.20;;;13.30;76.80;;;;;;5070874;28;20230;-90
2021/10/21 00:53:43;;;;;;;2.38;2.17;;;13.40;76.20;;;;;;5070008;28;20265;-89
2021/10/21 00:56:13;;;;;;;2.42;2.22;;;13.50;75.60;;;;;;5060966;28;20276;-90
2021/10/21 00:58:42;;;;;;;2.72;2.40;;;13.50;75.20;;;;;;5050771;28;20229;-90
2021/10/21 01:01:09;;;;;;;3.17;2.42;;;13.60;73.30;;;;;;5056627;28;20237;-89
2021/10/21 01:03:36;;;;;;;2.30;2.10;;;13.60;72.00;;;;;;5064586;28;20257;-89
2021/10/21 01:06:03;;;;;;;3.28;2.10;;;13.70;70.00;;;;;;5065063;28;20335;-90
2021/10/21 01:08:32;;;;;;;3.13;2.28;;;13.70;69.00;;;;;;5066245;28;20748;-90
2021/10/21 01:10:59;;;;;;;2.42;2.22;;;13.70;69.10;;;;;;5057590;28;20236;-91
2021/10/21 01:13:27;;;;;;;2.70;2.35;;;13.80;66.90;;;;;;5074640;28;20223;-89
2021/10/21 01:16:03;;;;;;;2.60;2.40;;;13.80;68.20;;;;;;5017950;28;20255;-90
2021/10/21 01:18:30;;;;;;;2.30;2.03;;;13.80;66.40;;;;;;5027104;28;20258;-90
2021/10/21 01:20:58;;;;;;;2.70;2.50;;;13.80;64.10;;;;;;5026299;28;20255;-89
2021/10/21 01:23:25;;;;;;;4.03;2.38;;;13.80;63.80;;;;;;5026354;28;20202;-90
2021/10/21 01:25:52;;;;;;;2.85;2.63;;;13.90;62.70;;;;;;5033461;28;20254;-90
2021/10/21 01:28:19;;;;;;;2.50;2.30;;;13.90;62.10;;;;;;5028946;28;20299;-91
2021/10/21 01:30:46;;;;;;;3.75;2.30;;;13.90;61.20;;;;;;5029484;28;20325;-89
2021/10/21 01:33:14;;;;;;;3.35;2.83;;;13.90;60.90;;;;;;5019832;28;20214;-91
2021/10/21 01:35:41;;;;;;;4.15;2.30;;;13.90;59.30;;;;;;5029535;28;20254;-90
2021/10/21 01:40:51;;;;;;;2.70;2.50;;;14.10;57.40;;;;;;5032831;28;20223;-91
2021/10/21 01:43:18;;;;;;;2.95;2.60;;;14.00;57.60;;;;;;5050872;28;20221;-89
2021/10/21 01:45:45;;;;;;;2.90;2.60;;;14.00;57.60;;;;;;5041794;28;20277;-90
2021/10/21 01:48:13;;;;;;;5.10;2.60;;;14.00;56.40;;;;;;5029684;28;20227;-89
2021/10/21 02:03:54;;;;;;;2.75;2.40;;;13.70;57.10;;;;;;5032016;28;20214;-89
2021/10/21 02:06:21;;;;;;;2.50;2.30;;;13.70;57.60;;;;;;5019528;28;20248;-89
2021/10/21 02:08:48;;;;;;;2.78;2.42;;;13.60;57.60;;;;;;5032012;28;20254;-90
2021/10/21 02:11:16;;;;;;;2.75;2.55;;;13.60;58.00;;;;;;5028888;28;20226;-89
2021/10/21 02:13:44;;;;;;;2.90;2.60;;;13.60;58.50;;;;;;5023443;28;20238;-91
2021/10/21 02:16:11;;;;;;;2.85;2.50;;;13.50;59.00;;;;;;5030968;28;20241;-91
2021/10/21 02:18:38;;;;;;;2.70;2.50;;;13.50;59.40;;;;;;5034441;28;20233;-90
2021/10/21 02:21:05;;;;;;;2.83;2.63;;;13.50;58.90;;;;;;5028818;28;20294;-90
2021/10/21 02:23:38;;;;;;;3.33;2.58;;;13.50;59.00;;;;;;5022421;28;20223;-90
2021/10/21 02:26:05;;;;;;;5.82;3.65;;;13.60;58.30;;;;;;5041947;28;20255;-90
2021/10/21 02:31:14;;;;;;;2.95;2.63;;;13.70;56.90;;;;;;5036433;28;20217;-90
2021/10/21 02:33:41;;;;;;;5.15;2.90;;;13.80;55.90;;;;;;5029362;28;20273;-89
2021/10/21 02:36:08;;;;;;;4.20;2.60;;;13.80;55.10;;;;;;5028522;28;20296;-90
2021/10/21 02:38:35;;;;;;;3.13;2.63;;;13.90;54.90;;;;;;5030686;28;20686;-90
2021/10/21 02:41:03;;;;;;;2.92;2.70;;;13.90;55.40;;;;;;5027608;28;20282;-90
2021/10/21 02:43:30;;;;;;;4.43;2.85;;;13.90;54.20;;;;;;5028594;28;20249;-89
2021/10/21 02:46:00;;;;;;;3.20;2.90;;;13.90;53.80;;;;;;5034402;28;20272;-90
2021/10/21 02:48:28;;;;;;;2.83;2.50;;;13.90;54.20;;;;;;5046226;28;20219;-90
2021/10/21 02:50:56;;;;;;;3.85;2.70;;;13.90;54.60;;;;;;5044254;28;20227;-89
2021/10/21 02:53:22;;;;;;;4.35;2.88;;;13.90;53.60;;;;;;5031906;28;20204;-91
2021/10/21 02:55:50;;;;;;;3.35;2.58;;;14.00;52.90;;;;;;5033010;28;20319;-90
2021/10/21 02:58:17;;;;;;;3.72;3.00;;;14.10;52.80;;;;;;5035013;28;20226;-90
2021/10/21 03:00:44;;;;;;;3.40;2.58;;;14.20;51.80;;;;;;5032871;28;20231;-90
2021/10/21 03:03:13;;;;;;;3.15;2.40;;;14.20;52.20;;;;;;5035133;28;20210;-89
2021/10/21 03:05:43;;;;;;;4.90;2.70;;;14.20;52.30;;;;;;5031845;28;20298;-91
2021/10/21 03:08:10;;;;;;;2.72;2.53;;;14.10;52.60;;;;;;5021605;28;20210;-89
2021/10/21 03:10:37;;;;;;;5.25;2.65;;;14.20;54.30;;;;;;5036260;28;20310;-90
2021/10/21 03:13:04;;;;;;;3.50;2.88;;;14.10;53.80;;;;;;5026893;28;20255;-90
2021/10/21 03:15:31;;;;;;;4.20;2.92;;;14.10;53.80;;;;;;5013663;28;20318;-90
2021/10/21 03:17:58;;;;;;;2.95;2.75;;;14.20;54.00;;;;;;5045834;28;20265;-91
2021/10/21 03:20:27;;;;;;;3.58;2.47;;;14.10;53.60;;;;;;5038636;28;20654;-89
2021/10/21 03:22:54;;;;;;;4.32;2.72;;;14.20;53.90;;;;;;5006816;28;20222;-89
2021/10/21 03:25:21;;;;;;;3.15;2.80;;;14.20;54.30;;;;;;5019383;28;20221;-90
2021/10/21 03:27:48;;;;;;;3.10;2.80;;;14.20;55.10;;;;;;5020651;28;20210;-90
2021/10/21 03:30:15;;;;;;;3.67;2.80;;;14.20;55.60;;;;;;5017816;28;20239;-90
2021/10/21 03:32:42;;;;;;;4.55;2.70;;;14.10;55.10;;;;;;5028778;28;20309;-91
2021/10/21 03:35:09;;;;;;;5.68;2.83;;;14.10;55.00;;;;;;5026426;28;20218;-91
2021/10/21 03:37:38;;;;;;;3.20;2.72;;;14.10;54.70;;;;;;5018209;28;20204;-90
2021/10/21 03:40:06;;;;;;;3.20;2.92;;;14.10;54.80;;;;;;5021659;28;20203;-89
2021/10/21 03:42:33;;;;;;;3.17;2.60;;;14.20;54.00;;;;;;5018690;28;20234;-90
2021/10/21 03:45:01;;;;;;;2.92;2.63;;;14.30;54.00;;;;;;5026495;28;20205;-89
2021/10/21 03:47:28;;;;;;;3.58;2.50;;;14.20;53.60;;;;;;5025301;28;20235;-90
2021/10/21 03:49:55;;;;;;;4.82;2.45;;;14.30;54.20;;;;;;5024959;28;20223;-92
2021/10/21 03:52:22;;;;;;;2.53;2.33;;;14.30;53.30;;;;;;5028696;28;20213;-90
2021/10/21 03:54:51;;;;;;;4.13;2.72;;;14.20;54.10;;;;;;5024358;28;20235;-91
2021/10/21 03:57:18;;;;;;;3.03;2.70;;;14.30;55.10;;;;;;5024101;28;20218;-91
2021/10/21 03:59:45;;;;;;;2.78;2.50;;;14.30;57.30;;;;;;5020298;28;20234;-91
2021/10/21 04:02:12;;;;;;;2.92;2.63;;;14.30;55.40;;;;;;5021515;28;20235;-90
2021/10/21 04:04:39;;;;;;;4.07;2.45;;;14.40;55.10;;;;;;5022398;28;20210;-90
2021/10/21 04:07:06;;;;;;;2.75;2.50;;;14.50;55.10;;;;;;5033022;28;20237;-90
2021/10/21 04:09:33;;;;;;;3.50;2.88;;;14.50;54.30;;;;;;5042893;28;20219;-91
2021/10/21 04:12:02;;;;;;;2.72;2.53;;;14.40;56.70;;;;;;5041098;28;20218;-91
2021/10/21 04:14:29;;;;;;;3.63;2.63;;;14.40;57.40;;;;;;5033995;28;20203;-90
2021/10/21 04:16:55;;;;;;;3.88;2.60;;;14.20;60.00;;;;;;5011280;28;20235;-91
2021/10/21 04:19:22;;;;;;;3.50;2.55;;;14.20;60.30;;;;;;5026415;28;20286;-90
2021/10/21 04:21:49;;;;;;;3.28;2.90;;;14.20;59.10;;;;;;5022235;28;20815;-91
2021/10/21 04:24:16;;;;;;;2.60;2.40;;;14.30;57.30;;;;;;5028332;28;20199;-89
2021/10/21 04:26:49;;;;;;;3.00;2.70;;;14.20;58.80;;;;;;5022080;28;20227;-90
2021/10/21 04:29:17;;;;;;;4.72;2.90;;;14.10;58.80;;;;;;5031130;28;20222;-91
2021/10/21 04:31:45;;;;;;;4.43;2.80;;;14.10;59.00;;;;;;5022922;28;20321;-90
2021/10/21 04:34:13;;;;;;;4.38;2.88;;;14.20;58.00;;;;;;5025963;28;20211;-90
2021/10/21 04:36:40;;;;;;;4.55;2.75;;;14.20;59.00;;;;;;5014033;28;20714;-90
2021/10/21 04:39:08;;;;;;;6.55;3.08;;;14.10;59.10;;;;;;5024210;28;20562;-92
2021/10/21 04:41:34;;;;;;;3.30;2.60;;;14.20;59.00;;;;;;5013990;28;20265;-90
2021/10/21 04:44:01;;;;;;;5.88;2.92;;;14.30;58.60;;;;;;5036418;28;20202;-90
2021/10/21 04:46:30;;;;;;;3.05;2.75;;;14.30;58.70;;;;;;5028500;28;20326;-90
2021/10/21 04:48:57;;;;;;;5.68;3.17;;;14.30;58.80;;;;;;5015745;28;20220;-89
2021/10/21 04:51:24;;;;;;;3.25;2.92;;;14.20;60.30;;;;;;5029362;28;20250;-90
2021/10/21 04:53:50;;;;;;;5.38;2.95;;;14.20;62.20;;;;;;5025140;28;20239;-90
2021/10/21 04:56:17;;;;;;;3.17;2.88;;;14.10;63.20;;;;;;5025942;28;20231;-90
2021/10/21 04:58:44;;;;;;;4.38;3.05;;;14.10;64.50;;;;;;5023114;28;20222;-89
2021/10/21 05:01:11;;;;;;;4.60;3.17;;;14.10;66.90;;;;;;5023821;28;20634;-90
2021/10/21 05:03:40;;;;;;;8.85;3.63;;;14.00;67.90;;;;;;5023857;28;20211;-88
2021/10/21 05:06:06;;;;;;;3.88;3.40;;;13.90;67.70;;;;;;5034232;28;20231;-89
2021/10/21 05:08:33;;;;;;;3.40;3.10;;;13.90;68.70;;;;;;5044064;28;20199;-91
2021/10/21 05:11:00;;;;;;;5.18;3.53;;;13.90;69.00;;;;;;5035324;28;20236;-90
2021/10/21 05:13:27;;;;;;;4.00;3.45;;;13.90;69.30;;;;;;5040974;28;20317;-89
2021/10/21 05:15:54;;;;;;;3.92;3.17;;;13.90;69.30;;;;;;5051078;28;20230;-90
2021/10/21 05:18:21;;;;;;;5.80;3.60;;;14.00;70.30;;;;;;5040642;28;20293;-88
2021/10/21 05:23:31;;;;;;;3.90;3.50;;;13.90;69.60;;;;;;5026289;28;20205;-88
2021/10/21 05:25:58;;;;;;;7.13;3.90;;;13.90;71.80;;;;;;5044324;28;20234;-90
2021/10/21 05:28:25;;;;;;;4.38;3.80;;;13.80;72.60;;;;;;5041198;28;20297;-89
2021/10/21 05:30:52;;;;;;;7.72;4.07;;;13.90;73.80;;;;;;5038801;28;20229;-88
2021/10/21 05:33:19;;;;;;;4.65;4.03;;;13.90;74.70;;;;;;5042626;28;20230;-88
2021/10/21 05:35:46;;;;;;;8.60;4.00;;;13.90;76.50;;;;;;5041966;28;20230;-91
2021/10/21 05:38:14;;;;;;;4.40;4.00;;;13.90;74.70;;;;;;5043001;28;20290;-89
2021/10/21 05:40:41;;;;;;;7.50;4.43;;;13.90;74.30;;;;;;5032650;28;20590;-90
2021/10/21 05:43:08;;;;;;;7.00;4.28;;;14.00;73.10;;;;;;5031844;28;20680;-90
2021/10/21 05:45:35;;;;;;;4.18;3.78;;;14.20;71.60;;;;;;5028981;28;20226;-90
2021/10/21 05:48:02;;;;;;;5.57;4.00;;;14.40;66.10;;;;;;5031464;28;20294;-91
2021/10/21 05:50:29;;;;;;;5.10;4.47;;;14.60;65.90;;;;;;5025719;28;20241;-90
2021/10/21 05:52:56;;;;;;;6.30;3.80;;;14.70;63.30;;;;;;5038223;28;20245;-90
2021/10/21 05:55:24;;;;;;;5.35;3.92;;;14.80;61.70;;;;;;5028410;28;20235;-93
2021/10/21 05:57:53;;;;;;;7.72;4.13;;;14.90;61.50;;;;;;5014631;28;20199;-93
2021/10/21 06:00:20;;;;;;;4.60;4.18;;;14.80;62.80;;;;;;5016352;28;20253;-94
2021/10/21 06:02:47;;;;;;;5.85;4.10;;;14.90;62.10;;;;;;5016197;28;20213;-93
2021/10/21 06:05:14;;;;;;;4.60;4.10;;;14.90;63.30;;;;;;5019810;28;20610;-93
2021/10/21 06:07:40;;;;;;;8.23;3.53;;;15.10;63.50;;;;;;5014795;28;20199;-93
2021/10/21 06:10:08;;;;;;;6.05;3.33;;;15.10;64.60;;;;;;5019210;28;20215;-93
2021/10/21 06:15:18;;;;;;;3.40;2.80;;;15.30;68.50;;;;;;5012052;28;20235;-91
2021/10/21 06:17:45;;;;;;;4.57;3.05;;;15.20;72.20;;;;;;5031443;28;20210;-90
2021/10/21 06:23:12;;;;;;;3.88;2.30;;;14.90;81.40;;;;;;5003202;28;20199;-90
2021/10/21 06:25:39;;;;;;;3.60;2.00;;;14.70;85.00;;;;;;4993167;28;20239;-90
2021/10/21 06:28:08;;;;;;;6.57;1.77;;;14.50;88.50;;;;;;5015329;28;20204;-90
2021/10/21 06:30:36;;;;;;;4.97;1.92;;;14.30;89.10;;;;;;5024819;28;20329;-90
2021/10/21 06:33:04;;;;;;;4.10;1.70;;;14.00;88.30;;;;;;5035030;28;20469;-91
2021/10/21 06:40:56;;;;;;;1.52;1.30;;;13.60;87.50;;;;;;5007582;28;20259;-91
2021/10/21 06:43:25;;;;;;;3.58;1.20;;;13.50;88.20;;;;;;5046695;28;20302;-92
2021/10/21 06:46:12;;;;;;;3.42;1.10;;;13.50;86.00;;;;;;5045494;28;20300;-91
2021/10/21 06:48:39;;;;;;;1.58;1.05;;;13.50;84.30;;;;;;5036750;28;20195;-91
2021/10/21 06:51:06;;;;;;;4.20;1.08;;;13.40;84.70;;;;;;5037930;28;20242;-93
2021/10/21 06:53:32;;;;;;;5.53;1.10;;;13.50;81.60;;;;;;5050435;28;20205;-91
2021/10/21 06:55:59;;;;;;;4.82;0.80;;;13.50;82.20;;;;;;5041039;28;20226;-91
2021/10/21 06:58:28;;;;;;;1.83;0.90;;;13.50;72.90;;;;;;5030665;28;20225;-91
2021/10/21 07:00:55;;;;;;;1.35;1.00;;;13.60;70.10;;;;;;5034175;28;20235;-92
2021/10/21 07:03:22;;;;;;;4.85;0.90;;;13.60;63.30;;;;;;5031910;28;20200;-91
2021/10/21 07:05:52;;;;;;;4.10;0.90;;;13.60;60.90;;;;;;5027912;28;20741;-91
2021/10/21 07:08:20;;;;;;;3.85;1.17;;;13.80;54.60;;;;;;5026499;28;20230;-90
2021/10/21 07:10:47;;;;;;;3.20;1.02;;;13.90;52.50;;;;;;5026602;28;20282;-91
2021/10/21 07:13:14;;;;;;;3.53;1.00;;;13.90;54.80;;;;;;5027975;28;20227;-90
2021/10/21 07:15:43;;;;;;;2.05;0.93;;;13.90;54.40;;;;;;5038601;28;20230;-91
2021/10/21 07:18:10;;;;;;;4.30;1.13;;;13.90;55.80;;;;;;5033982;28;20758;-90
2021/10/21 07:20:38;;;;;;;4.50;1.00;;;13.90;56.80;;;;;;5037503;28;20291;-90
2021/10/21 07:23:04;;;;;;;6.43;1.15;;;13.90;57.30;;;;;;5036715;28;20198;-90
2021/10/21 07:25:31;;;;;;;3.08;0.93;;;13.90;59.00;;;;;;5047165;28;20285;-90
2021/10/21 07:27:59;;;;;;;6.25;1.23;;;13.80;63.30;;;;;;5025804;28;20210;-91
2021/10/21 07:30:27;;;;;;;4.10;1.20;;;13.70;64.80;;;;;;5022300;28;20235;-91
2021/10/21 07:32:57;;;;;;;3.90;0.98;;;13.60;66.00;;;;;;5034846;28;20605;-91
2021/10/21 07:35:25;;;;;;;3.22;1.30;;;13.60;67.60;;;;;;5031833;28;20252;-90
2021/10/21 07:38:04;;;;;;;3.08;1.10;;;13.60;68.10;;;;;;5047211;28;20281;-91
2021/10/21 07:40:31;;;;;;;1.92;0.93;;;13.60;68.50;;;;;;5043048;28;20302;-90
2021/10/21 07:42:58;;;;;;;5.85;1.10;;;13.50;72.10;;;;;;5041664;28;20638;-90
2021/10/21 07:45:25;;;;;;;4.20;1.20;;;13.50;75.10;;;;;;5043753;28;20234;-91
2021/10/21 07:47:52;;;;;;;2.60;1.02;;;13.60;73.80;;;;;;5029754;28;20274;-90
2021/10/21 07:53:19;;;;;;;3.92;1.30;;;13.60;76.20;;;;;;5027994;28;20293;-92
2021/10/21 07:56:33;;;;;;;1.73;1.10;;;13.60;76.30;;;;;;5031183;28;20262;-91
2021/10/21 07:59:00;;;;;;;3.78;1.30;;;13.60;75.40;;;;;;5027681;28;20195;-92
2021/10/21 08:01:27;;;;;;;4.32;1.05;;;13.60;72.10;;;;;;5033504;28;20227;-90
2021/10/21 08:03:55;;;;;;;2.35;1.10;;;13.70;73.30;;;;;;5030953;28;20211;-91
2021/10/21 08:21:02;;;;;;;4.93;1.30;;;13.90;55.30;;;;;;5055818;23;20771;-91
2021/10/21 08:26:56;;;;;;;5.43;1.30;;;14.00;52.30;;;;;;5059722;28;20224;-89
2021/10/21 08:29:53;;;;;;;6.35;1.30;;;14.10;52.00;;;;;;5078615;28;20197;-92
2021/10/21 08:32:34;;;;;;;5.40;1.55;;;14.20;50.60;;;;;;5085244;28;20201;-93
2021/10/21 14:46:56;;;;;;;4.00;1.05;;;14.80;27.80;;;;;;5006411;28;20228;-93
2021/10/21 14:49:23;;;;;;;3.58;1.08;;;14.80;27.70;;;;;;5058639;28;20197;-91
2021/10/21 14:51:50;;;;;;;2.47;1.30;;;14.70;27.60;;;;;;5060412;28;20227;-92
2021/10/21 14:54:20;;;;;;;1.73;1.27;;;14.60;27.50;;;;;;5074439;28;20193;-92
2021/10/21 14:57:37;;;;;;;2.53;0.80;;;14.60;27.50;;;;;;5036931;28;20228;-91
2021/10/21 15:03:04;;;;;;;7.82;1.30;;;14.60;27.50;;;;;;5062953;28;20631;-92
2021/10/21 15:05:31;;;;;;;4.05;1.00;;;14.50;27.40;;;;;;5075676;28;20268;-90
2021/10/21 15:11:01;;;;;;;2.25;1.02;;;14.40;27.30;;;;;;5065226;28;20227;-92
2021/10/21 15:24:49;;;;;;;2.38;1.20;;;14.20;29.40;;;;;;5060997;28;20246;-92
2021/10/21 15:27:16;;;;;;;2.53;1.10;;;14.20;29.60;;;;;;5054785;28;20226;-92
2021/10/21 15:32:31;;;;;;;3.30;1.05;;;14.00;30.50;;;;;;5045435;28;20217;-92
2021/10/21 15:37:48;;;;;;;4.25;1.17;;;13.90;30.70;;;;;;5051587;28;20194;-92
2021/10/21 15:40:15;;;;;;;4.13;1.38;;;13.90;30.50;;;;;;5059442;28;20268;-92
2021/10/21 15:43:03;;;;;;;4.40;1.20;;;13.90;31.00;;;;;;5055273;28;20206;-92
2021/10/21 15:51:01;;;;;;;3.65;1.27;;;13.80;31.70;;;;;;5057115;28;20320;-91
2021/10/21 16:10:09;;;;;;;5.80;1.70;;;13.40;32.50;;;;;;5058875;28;20205;-93
2021/10/21 16:12:53;;;;;;;1.95;1.13;;;13.30;33.10;;;;;;5058014;28;20222;-91
2021/10/21 16:15:20;;;;;;;1.65;0.95;;;13.20;33.40;;;;;;5066938;28;20675;-92
2021/10/21 16:20:32;;;;;;;2.88;1.48;;;13.20;33.90;;;;;;5057145;28;20221;-91
2021/10/21 16:23:02;;;;;;;3.25;1.30;;;13.10;34.40;;;;;;5059979;28;20194;-92
2021/10/21 16:28:25;;;;;;;2.17;1.30;;;12.90;35.80;;;;;;5022511;28;20209;-92
2021/10/21 16:36:20;;;;;;;2.42;1.17;;;12.70;36.70;;;;;;5030932;28;20232;-93
2021/10/21 16:38:47;;;;;;;3.95;1.45;;;12.60;37.70;;;;;;5064421;28;20202;-92
2021/10/21 16:41:14;;;;;;;2.47;1.33;;;12.60;38.10;;;;;;5061559;28;20630;-92
2021/10/21 16:43:41;;;;;;;4.00;1.38;;;12.60;38.00;;;;;;5059870;28;20214;-93
2021/10/21 16:46:09;;;;;;;1.92;1.30;;;12.60;38.80;;;;;;5049185;28;20289;-93
2021/10/21 16:48:36;;;;;;;4.80;1.38;;;12.50;39.00;;;;;;5055916;28;20224;-93
2021/10/21 16:53:46;;;;;;;3.80;1.45;;;12.40;40.90;;;;;;5039659;28;20233;-92
2021/10/21 16:56:13;;;;;;;5.13;1.30;;;12.30;41.40;;;;;;5055586;28;20258;-91
2021/10/21 16:58:51;;;;;;;3.58;1.60;;;12.30;42.50;;;;;;5058588;28;20228;-92
2021/10/21 17:01:19;;;;;;;3.78;1.30;;;12.30;44.00;;;;;;5046820;28;20266;-92
2021/10/21 17:03:46;;;;;;;3.17;1.30;;;12.30;42.60;;;;;;5051211;28;20203;-90
2021/10/21 17:08:57;;;;;;;2.15;1.27;;;12.20;43.40;;;;;;5050580;28;20217;-92
2021/10/21 17:11:24;;;;;;;3.47;1.40;;;12.20;43.80;;;;;;5050240;28;20249;-90
2021/10/21 17:13:51;;;;;;;4.72;1.60;;;12.20;44.50;;;;;;5063364;28;20233;-91
2021/10/21 17:19:02;;;;;;;2.90;1.40;;;12.10;45.30;;;;;;5059784;28;20209;-91
2021/10/21 17:21:31;;;;;;;5.00;1.50;;;12.20;44.70;;;;;;5066430;28;20368;-90
2021/10/21 17:23:58;;;;;;;5.85;1.25;;;12.20;44.10;;;;;;5066131;28;20206;-89
2021/10/21 17:26:25;;;;;;;1.58;1.00;;;12.20;45.20;;;;;;5064394;28;20316;-87
2021/10/21 17:28:52;;;;;;;4.18;1.17;;;12.20;45.00;;;;;;5065076;28;20273;-88
2021/10/21 17:31:20;;;;;;;4.45;1.50;;;12.20;45.30;;;;;;5067270;28;20244;-91
2021/10/21 17:33:48;;;;;;;3.53;1.33;;;12.10;46.40;;;;;;5062988;28;20222;-92
2021/10/21 17:36:16;;;;;;;3.15;1.20;;;12.10;46.80;;;;;;5060149;28;20297;-93
2021/10/21 17:41:26;;;;;;;2.95;1.40;;;12.10;46.50;;;;;;5026702;28;20222;-92
2021/10/21 17:44:12;;;;;;;4.78;1.55;;;12.10;46.00;;;;;;5039897;28;20224;-92
2021/10/21 17:46:39;;;;;;;3.55;1.40;;;12.20;45.80;;;;;;5057362;28;20228;-91
2021/10/21 17:49:09;;;;;;;3.20;1.65;;;12.10;46.90;;;;;;5034053;28;20746;-91
2021/10/21 17:51:36;;;;;;;4.05;1.52;;;12.00;48.60;;;;;;5050411;28;20241;-92
2021/10/21 17:54:05;;;;;;;4.82;1.63;;;11.90;49.70;;;;;;5053052;28;20280;-91
2021/10/21 17:56:32;;;;;;;4.32;1.70;;;11.80;48.40;;;;;;5054699;28;20256;-91
2021/10/21 17:58:59;;;;;;;3.40;1.63;;;11.70;50.20;;;;;;5053158;28;20230;-91
2021/10/21 18:01:26;;;;;;;4.25;1.80;;;11.70;48.90;;;;;;5054268;28;20218;-91
2021/10/21 18:06:39;;;;;;;2.42;1.58;;;11.70;50.40;;;;;;5039406;28;20604;-91
2021/10/21 18:23:31;;;;;;;2.40;1.15;;;11.60;49.70;;;;;;5011500;28;20235;-93
2021/10/21 18:32:37;;;;;;;3.03;1.25;;;11.50;49.70;;;;;;4995327;28;20258;-93
2021/10/21 19:02:32;;;;;;;3.58;1.73;;;11.50;48.10;;;;;;4954497;28;20274;-92
2021/10/21 21:39:45;;;;;;;3.15;1.40;;;11.90;43.80;;;;;;5047180;28;20229;-93
2021/10/21 21:44:57;;;;;;;4.30;1.50;;;12.10;44.90;;;;;;5045461;28;20261;-93
2021/10/21 21:47:25;;;;;;;5.30;1.50;;;12.10;43.00;;;;;;5064018;28;20241;-93
2021/10/21 21:49:52;;;;;;;5.35;1.75;;;12.10;43.50;;;;;;5047080;28;20221;-93
2021/10/21 21:58:01;;;;;;;4.07;1.38;;;12.10;44.00;;;;;;5036787;28;20226;-93
2021/10/21 22:00:28;;;;;;;3.33;1.30;;;12.20;44.30;;;;;;5050352;28;20273;-93
2021/10/21 22:02:56;;;;;;;4.00;2.30;;;12.10;44.20;;;;;;5060185;28;20228;-93
2021/10/21 22:05:23;;;;;;;3.95;2.20;;;12.10;46.30;;;;;;5056392;28;20230;-93
2021/10/21 22:07:51;;;;;;;4.20;1.77;;;12.20;46.00;;;;;;5062768;28;20293;-93
2021/10/21 22:10:19;;;;;;;2.92;1.75;;;12.30;44.20;;;;;;5052973;28;20262;-93
2021/10/21 22:12:46;;;;;;;4.45;1.50;;;12.30;43.80;;;;;;5052752;28;20268;-93
2021/10/21 22:15:13;;;;;;;3.47;1.45;;;12.30;44.20;;;;;;5054056;28;20278;-93
2021/10/21 22:17:40;;;;;;;4.20;1.40;;;12.10;45.10;;;;;;5047900;28;20193;-93
2021/10/21 22:25:31;;;;;;;3.90;1.60;;;12.30;45.40;;;;;;5041566;28;20255;-93
2021/10/21 22:27:58;;;;;;;2.15;1.52;;;12.20;46.50;;;;;;5063250;28;20226;-93
2021/10/21 22:30:26;;;;;;;4.40;1.67;;;12.30;45.70;;;;;;5061535;28;20317;-93
2021/10/21 22:32:52;;;;;;;3.28;1.40;;;12.30;45.50;;;;;;5067363;28;20256;-93
2021/10/21 22:35:19;;;;;;;3.92;2.40;;;12.40;45.00;;;;;;5068271;28;20236;-93
2021/10/21 22:37:47;;;;;;;2.92;1.45;;;12.50;45.60;;;;;;5069194;28;20280;-93
2021/10/21 22:42:56;;;;;;;5.07;1.52;;;12.50;44.50;;;;;;5015820;28;20209;-93
2021/10/21 22:45:24;;;;;;;3.58;1.67;;;12.50;44.00;;;;;;5055610;28;20233;-93
2021/10/21 22:48:12;;;;;;;4.63;1.55;;;12.50;44.80;;;;;;5052223;28;20205;-93
2021/10/21 22:50:40;;;;;;;3.05;1.40;;;12.50;43.40;;;;;;5034507;28;20232;-93
2021/10/21 22:53:07;;;;;;;3.53;1.30;;;12.40;44.70;;;;;;5046404;28;20357;-93
2021/10/21 22:55:36;;;;;;;3.47;1.30;;;12.50;43.50;;;;;;5056244;28;20229;-93
2021/10/21 22:58:04;;;;;;;4.68;1.42;;;12.60;42.50;;;;;;5057754;28;20265;-93
2021/10/21 23:00:34;;;;;;;3.20;1.30;;;12.60;43.60;;;;;;5058067;28;20226;-92
2021/10/21 23:05:46;;;;;;;2.22;1.20;;;12.60;42.90;;;;;;5009207;28;20230;-93
2021/10/21 23:17:08;;;;;;;2.53;1.30;;;12.60;43.10;;;;;;5050921;28;20265;-94
2021/10/21 23:19:37;;;;;;;1.70;0.90;;;12.60;43.70;;;;;;5072379;28;20209;-93
2021/10/21 23:47:38;;;;;;;3.90;1.27;;;11.90;55.40;;;;;;5044946;28;20200;-93
2021/10/21 23:53:44;;;;;;;3.30;1.00;;;12.00;56.20;;;;;;5075005;28;20336;-93
2021/10/21 23:56:11;;;;;;;3.05;1.00;;;11.90;58.30;;;;;;5033305;28;20285;-93
